createdAt,value
2022-08-31T00:01:01.542Z,102328.06
2022-08-31T00:03:46.914Z,102325.47
2022-08-31T00:06:13.588Z,102322.75
2022-08-31T00:08:40.214Z,102326.28
2022-08-31T00:11:09.978Z,102325.41
2022-08-31T00:13:36.850Z,102329.00
2022-08-31T00:16:04.378Z,102324.59
2022-08-31T00:18:31.214Z,102329.06
2022-08-31T00:20:58.114Z,102334.44
2022-08-31T00:23:25.341Z,102330.91
2022-08-31T00:25:52.667Z,102337.16
2022-08-31T00:28:22.755Z,102330.06
2022-08-31T00:30:49.757Z,102331.03
2022-08-31T00:33:16.796Z,102334.56
2022-08-31T00:35:49.577Z,102332.78
2022-08-31T00:38:16.476Z,102328.41
2022-08-31T00:40:45.921Z,102325.81
2022-08-31T00:43:33.352Z,102330.28
2022-08-31T00:46:00.173Z,102340.94
2022-08-31T00:48:27.213Z,102341.84
2022-08-31T00:50:53.919Z,102336.53
2022-08-31T00:53:20.690Z,102332.13
2022-08-31T00:55:47.563Z,102332.13
2022-08-31T00:58:14.265Z,102332.13
2022-08-31T01:00:46.473Z,102332.19
2022-08-31T01:03:13.343Z,102328.75
2022-08-31T01:05:40.546Z,102328.03
2022-08-31T01:08:10.490Z,102332.53
2022-08-31T01:10:43.871Z,102343.16
2022-08-31T01:13:13.037Z,102341.44
2022-08-31T01:15:45.852Z,102350.34
2022-08-31T01:18:12.874Z,102346.81
2022-08-31T01:20:52.174Z,102341.53
2022-08-31T01:23:34.900Z,102345.03
2022-08-31T01:26:03.660Z,102350.34
2022-08-31T01:28:30.341Z,102345.94
2022-08-31T01:31:21.249Z,102339.75
2022-08-31T01:33:48.593Z,102350.41
2022-08-31T01:36:16.471Z,102352.19
2022-08-31T01:38:44.207Z,102348.69
2022-08-31T01:41:13.711Z,102350.53
2022-08-31T01:43:41.425Z,102342.56
2022-08-31T01:46:12.733Z,102347.03
2022-08-31T01:48:42.576Z,102346.16
2022-08-31T01:51:12.776Z,102351.53
2022-08-31T01:53:41.347Z,102355.09
2022-08-31T01:56:17.772Z,102351.66
2022-08-31T01:58:45.246Z,102355.25
2022-08-31T02:01:32.919Z,102348.19
2022-08-31T02:03:59.620Z,102344.66
2022-08-31T02:06:26.723Z,102342.03
2022-08-31T02:08:53.742Z,102342.03
2022-08-31T02:11:20.395Z,102343.88
2022-08-31T02:13:47.073Z,102342.09
2022-08-31T02:16:14.014Z,102349.22
2022-08-31T02:18:40.776Z,102343.03
2022-08-31T02:21:07.466Z,102346.66
2022-08-31T02:23:34.263Z,102348.44
2022-08-31T02:26:01.094Z,102351.19
2022-08-31T02:28:27.731Z,102352.13
2022-08-31T02:30:54.407Z,102347.66
2022-08-31T02:33:21.199Z,102352.06
2022-08-31T02:35:51.760Z,102349.41
2022-08-31T02:38:23.010Z,102355.69
2022-08-31T02:40:51.404Z,102353.03
2022-08-31T02:43:24.765Z,102353.06
2022-08-31T02:45:52.283Z,102358.41
2022-08-31T02:48:20.904Z,102363.81
2022-08-31T02:50:50.878Z,102364.69
2022-08-31T02:53:20.202Z,102361.22
2022-08-31T02:55:47.014Z,102356.75
2022-08-31T02:58:14.726Z,102358.50
2022-08-31T03:00:45.918Z,102367.34
2022-08-31T03:03:13.254Z,102369.13
2022-08-31T03:05:40.628Z,102365.63
2022-08-31T03:08:07.756Z,102368.31
2022-08-31T03:10:34.669Z,102363.91
2022-08-31T03:13:01.690Z,102362.16
2022-08-31T03:15:29.073Z,102363.09
2022-08-31T03:17:56.389Z,102365.78
2022-08-31T03:20:24.990Z,102361.38
2022-08-31T03:22:51.701Z,102368.50
2022-08-31T03:25:19.962Z,102364.09
2022-08-31T03:27:46.907Z,102361.47
2022-08-31T03:30:16.898Z,102365.00
2022-08-31T03:32:45.639Z,102365.00
2022-08-31T03:35:13.033Z,102361.47
2022-08-31T03:37:39.694Z,102364.13
2022-08-31T03:40:08.154Z,102363.31
2022-08-31T03:42:35.279Z,102363.41
2022-08-31T03:45:01.937Z,102363.47
2022-08-31T03:47:28.871Z,102361.69
2022-08-31T03:49:55.682Z,102367.97
2022-08-31T03:52:22.487Z,102371.66
2022-08-31T03:54:49.391Z,102378.00
2022-08-31T03:57:16.081Z,102377.22
2022-08-31T03:59:45.766Z,102378.22
2022-08-31T04:02:12.509Z,102381.81
2022-08-31T04:04:39.134Z,102376.56
2022-08-31T04:07:05.764Z,102387.22
2022-08-31T04:09:33.644Z,102377.59
2022-08-31T04:12:00.282Z,102371.50
2022-08-31T04:14:26.935Z,102381.28
2022-08-31T04:16:53.673Z,102383.13
2022-08-31T04:19:20.314Z,102378.72
2022-08-31T04:21:47.746Z,102388.50
2022-08-31T04:24:14.487Z,102384.09
2022-08-31T04:26:41.522Z,102388.53
2022-08-31T04:29:13.269Z,102388.53
2022-08-31T04:31:40.758Z,102392.03
2022-08-31T04:34:07.520Z,102392.03
2022-08-31T04:36:34.329Z,102399.09
2022-08-31T04:39:03.368Z,102392.88
2022-08-31T04:41:36.923Z,102402.63
2022-08-31T04:44:04.622Z,102398.16
2022-08-31T04:46:37.709Z,102390.16
2022-08-31T04:49:04.824Z,102403.38
2022-08-31T04:51:35.566Z,102398.09
2022-08-31T04:54:09.364Z,102401.66
2022-08-31T04:56:40.059Z,102394.50
2022-08-31T04:59:09.494Z,102407.69
2022-08-31T05:01:45.807Z,102407.66
2022-08-31T05:04:17.293Z,102397.84
2022-08-31T05:06:46.687Z,102389.84
2022-08-31T05:09:17.222Z,102398.66
2022-08-31T05:11:44.759Z,102403.97
2022-08-31T05:14:11.981Z,102403.97
2022-08-31T05:16:40.472Z,102406.59
2022-08-31T05:19:10.198Z,102399.50
2022-08-31T05:21:42.133Z,102393.25
2022-08-31T05:24:14.421Z,102397.66
2022-08-31T05:26:48.333Z,102393.16
2022-08-31T05:29:17.997Z,102394.88
2022-08-31T05:31:52.234Z,102397.41
2022-08-31T05:34:21.717Z,102399.97
2022-08-31T05:36:54.223Z,102394.63
2022-08-31T05:39:22.417Z,102399.84
2022-08-31T05:41:49.314Z,102397.94
2022-08-31T05:44:17.192Z,102392.50
2022-08-31T05:46:44.939Z,102397.66
2022-08-31T05:49:19.639Z,102398.44
2022-08-31T05:51:46.299Z,102398.41
2022-08-31T05:54:14.919Z,102401.88
2022-08-31T05:56:41.830Z,102406.38
2022-08-31T05:59:09.791Z,102412.59
2022-08-31T06:01:44.793Z,102408.13
2022-08-31T06:04:12.422Z,102407.19
2022-08-31T06:06:39.480Z,102413.25
2022-08-31T06:09:08.267Z,102405.13
2022-08-31T06:11:35.189Z,102409.38
2022-08-31T06:14:04.424Z,102406.59
2022-08-31T06:16:32.343Z,102407.34
2022-08-31T06:19:03.540Z,102410.84
2022-08-31T06:21:36.023Z,102408.94
2022-08-31T06:24:04.546Z,102407.16
2022-08-31T06:26:34.118Z,102407.09
2022-08-31T06:29:03.042Z,102407.88
2022-08-31T06:31:37.457Z,102409.56
2022-08-31T06:34:06.578Z,102410.28
2022-08-31T06:36:34.402Z,102415.47
2022-08-31T06:39:02.640Z,102407.34
2022-08-31T06:41:36.625Z,102413.53
2022-08-31T06:44:07.867Z,102409.88
2022-08-31T06:46:36.457Z,102410.69
2022-08-31T06:49:03.691Z,102404.38
2022-08-31T06:51:36.553Z,102408.72
2022-08-31T06:54:21.762Z,102405.19
2022-08-31T06:56:53.810Z,102408.75
2022-08-31T06:59:21.036Z,102409.56
2022-08-31T07:01:49.285Z,102405.03
2022-08-31T07:04:16.015Z,102400.44
2022-08-31T07:06:44.483Z,102389.69
2022-08-31T07:09:16.032Z,102402.00
2022-08-31T07:11:45.294Z,102394.69
2022-08-31T07:14:14.265Z,102391.88
2022-08-31T07:16:42.291Z,102389.91
2022-08-31T07:19:09.508Z,102393.22
2022-08-31T07:21:43.884Z,102395.59
2022-08-31T07:24:12.659Z,102386.50
2022-08-31T07:26:41.958Z,102389.91
2022-08-31T07:29:10.094Z,102388.84
2022-08-31T07:31:44.755Z,102386.94
2022-08-31T07:34:15.950Z,102387.63
2022-08-31T07:37:02.178Z,102389.25
2022-08-31T07:39:48.824Z,102394.41
2022-08-31T07:42:19.127Z,102392.47
2022-08-31T07:44:53.388Z,102388.72
2022-08-31T07:47:22.570Z,102382.28
2022-08-31T07:49:52.677Z,102378.50
2022-08-31T07:52:23.901Z,102380.06
2022-08-31T07:55:07.777Z,102378.03
2022-08-31T07:57:44.252Z,102373.31
2022-08-31T08:00:26.630Z,102376.50
2022-08-31T08:02:54.133Z,102364.56
2022-08-31T08:05:27.330Z,102364.16
2022-08-31T08:08:08.431Z,102369.47
2022-08-31T08:10:43.655Z,102369.28
2022-08-31T08:13:16.127Z,102370.16
2022-08-31T08:15:42.858Z,102369.81
2022-08-31T08:18:12.203Z,102365.38
2022-08-31T08:20:39.652Z,102366.22
2022-08-31T08:23:13.997Z,102361.09
2022-08-31T08:25:45.152Z,102360.22
2022-08-31T08:28:38.609Z,102353.03
2022-08-31T08:31:11.210Z,102356.09
2022-08-31T08:33:37.957Z,102357.00
2022-08-31T08:36:10.191Z,102355.19
2022-08-31T08:38:40.189Z,102356.50
2022-08-31T08:41:35.686Z,102357.72
2022-08-31T08:44:05.308Z,102352.97
2022-08-31T08:46:47.986Z,102342.81
2022-08-31T08:49:29.169Z,102351.56
2022-08-31T08:52:03.379Z,102352.44
2022-08-31T08:54:34.730Z,102347.75
2022-08-31T08:57:14.342Z,102334.09
2022-08-31T08:59:43.523Z,102341.63
2022-08-31T09:02:20.257Z,102339.16
2022-08-31T09:05:17.991Z,102337.78
2022-08-31T09:07:59.906Z,102336.78
2022-08-31T09:11:18.688Z,102333.97
2022-08-31T09:14:23.894Z,102330.63
2022-08-31T09:17:29.108Z,102326.19
2022-08-31T09:20:00.436Z,102335.56
2022-08-31T09:22:47.169Z,102326.47
2022-08-31T09:25:16.622Z,102332.72
2022-08-31T09:27:57.680Z,102329.81
2022-08-31T09:30:33.184Z,102315.47
2022-08-31T09:33:00.386Z,102321.19
2022-08-31T09:35:41.425Z,102320.94
2022-08-31T09:38:31.486Z,102311.25
2022-08-31T09:41:10.297Z,102318.56
2022-08-31T09:43:38.605Z,102326.38
2022-08-31T09:46:11.917Z,102315.53
2022-08-31T09:48:55.058Z,102323.78
2022-08-31T09:51:34.444Z,102311.25
2022-08-31T09:54:36.911Z,102315.47
2022-08-31T09:57:06.746Z,102306.38
2022-08-31T09:59:41.975Z,102310.56
2022-08-31T10:02:23.057Z,102312.94
2022-08-31T10:04:57.302Z,102306.47
2022-08-31T10:07:43.271Z,102302.59
2022-08-31T10:10:30.296Z,102308.56
2022-08-31T10:13:16.019Z,102300.09
2022-08-31T10:16:23.200Z,102300.50
2022-08-31T10:19:04.547Z,102291.38
2022-08-31T10:21:40.635Z,102290.13
2022-08-31T10:24:33.606Z,102292.50
2022-08-31T10:27:14.910Z,102287.13
2022-08-31T10:29:56.190Z,102292.31
2022-08-31T10:32:46.091Z,102294.47
2022-08-31T10:35:19.583Z,102296.97
2022-08-31T10:38:08.331Z,102300.53
2022-08-31T10:40:44.889Z,102293.03
2022-08-31T10:43:23.961Z,102283.13
2022-08-31T10:45:53.398Z,102293.03
2022-08-31T10:48:24.724Z,102288.72
2022-08-31T10:51:05.812Z,102290.41
2022-08-31T10:53:52.314Z,102277.78
2022-08-31T10:56:25.794Z,102277.59
2022-08-31T10:59:08.708Z,102276.88
2022-08-31T11:01:46.727Z,102280.81
2022-08-31T11:04:32.000Z,102270.69
2022-08-31T11:07:29.868Z,102262.19
2022-08-31T11:10:19.949Z,102265.78
2022-08-31T11:12:57.724Z,102264.31
2022-08-31T11:15:46.087Z,102264.19
2022-08-31T11:18:40.042Z,102261.50
2022-08-31T11:21:22.048Z,102265.13
2022-08-31T11:24:17.643Z,102270.38
2022-08-31T11:26:55.074Z,102273.06
2022-08-31T11:29:43.274Z,102275.25
2022-08-31T11:32:34.297Z,102262.31
2022-08-31T11:35:08.333Z,102260.59
2022-08-31T11:37:56.078Z,102259.63
2022-08-31T11:40:46.752Z,102259.78
2022-08-31T11:43:31.491Z,102260.81
2022-08-31T11:46:19.852Z,102257.19
2022-08-31T11:48:55.596Z,102258.38
2022-08-31T11:51:44.875Z,102252.44
2022-08-31T11:54:42.007Z,102241.72
2022-08-31T11:57:16.022Z,102245.97
2022-08-31T11:59:47.681Z,102246.50
2022-08-31T12:02:20.102Z,102242.97
2022-08-31T12:04:47.567Z,102235.84
2022-08-31T12:07:16.987Z,102238.91
2022-08-31T12:10:17.861Z,102241.81
2022-08-31T12:13:03.881Z,102236.25
2022-08-31T12:15:36.230Z,102233.22
2022-08-31T12:18:34.828Z,102238.53
2022-08-31T12:21:20.154Z,102250.53
2022-08-31T12:24:18.605Z,102248.06
2022-08-31T12:27:11.675Z,102253.53
2022-08-31T12:29:40.560Z,102253.84
2022-08-31T12:32:28.973Z,102255.56
2022-08-31T12:35:03.976Z,102247.78
2022-08-31T12:37:33.234Z,102249.69
2022-08-31T12:40:10.984Z,102239.81
2022-08-31T12:42:52.095Z,102234.91
2022-08-31T12:45:21.659Z,102238.75
2022-08-31T12:48:17.086Z,102228.94
2022-08-31T12:50:52.076Z,102233.38
2022-08-31T12:53:18.811Z,102241.19
2022-08-31T12:55:48.618Z,102230.00
2022-08-31T12:58:32.773Z,102233.28
2022-08-31T13:01:09.590Z,102239.47
2022-08-31T13:03:39.607Z,102237.16
2022-08-31T13:06:15.298Z,102244.41
2022-08-31T13:08:42.057Z,102237.69
2022-08-31T13:11:35.040Z,102242.63
2022-08-31T13:14:24.740Z,102242.06
2022-08-31T13:16:53.474Z,102242.31
2022-08-31T13:19:29.587Z,102251.00
2022-08-31T13:21:59.530Z,102253.31
2022-08-31T13:24:34.090Z,102255.66
2022-08-31T13:27:18.616Z,102268.00
2022-08-31T13:29:46.138Z,102272.09
2022-08-31T13:32:35.186Z,102261.81
2022-08-31T13:35:10.625Z,102263.47
2022-08-31T13:37:42.128Z,102259.09
2022-08-31T13:40:12.839Z,102253.00
2022-08-31T13:42:45.738Z,102258.72
2022-08-31T13:45:26.745Z,102254.00
2022-08-31T13:47:58.201Z,102237.59
2022-08-31T13:50:33.395Z,102244.72
2022-08-31T13:53:25.936Z,102248.19
2022-08-31T13:55:50.518Z,102253.00
2022-08-31T13:58:32.294Z,102256.38
2022-08-31T14:01:25.227Z,102249.38
2022-08-31T14:03:58.251Z,102245.84
2022-08-31T14:06:31.051Z,102239.38
2022-08-31T14:09:05.209Z,102240.97
2022-08-31T14:11:33.858Z,102235.63
2022-08-31T14:14:09.962Z,102238.16
2022-08-31T14:16:51.905Z,102230.91
2022-08-31T14:19:38.886Z,102235.09
2022-08-31T14:22:27.307Z,102229.47
2022-08-31T14:24:57.019Z,102234.59
2022-08-31T14:27:24.177Z,102234.72
2022-08-31T14:29:52.362Z,102241.91
2022-08-31T14:32:22.089Z,102245.78
2022-08-31T14:34:49.467Z,102241.72
2022-08-31T14:37:22.411Z,102240.34
2022-08-31T14:39:51.930Z,102244.16
2022-08-31T14:42:25.715Z,102239.81
2022-08-31T14:45:00.815Z,102234.28
2022-08-31T14:47:29.993Z,102246.69
2022-08-31T14:50:05.399Z,102240.16
2022-08-31T14:52:34.782Z,102244.28
2022-08-31T14:55:02.635Z,102237.53
2022-08-31T14:57:32.944Z,102233.63
2022-08-31T15:00:02.168Z,102234.38
2022-08-31T15:02:33.440Z,102238.00
2022-08-31T15:05:06.568Z,102231.69
2022-08-31T15:07:36.358Z,102224.41
2022-08-31T15:10:06.840Z,102228.44
2022-08-31T15:12:34.534Z,102230.00
2022-08-31T15:15:01.474Z,102230.84
2022-08-31T15:17:30.408Z,102224.69
2022-08-31T15:19:57.432Z,102232.94
2022-08-31T15:22:26.446Z,102223.53
2022-08-31T15:24:57.074Z,102222.78
2022-08-31T15:27:28.733Z,102222.00
2022-08-31T15:30:01.417Z,102227.34
2022-08-31T15:32:28.216Z,102227.34
2022-08-31T15:34:58.205Z,102221.06
2022-08-31T15:37:30.768Z,102224.56
2022-08-31T15:40:00.899Z,102223.59
2022-08-31T15:42:29.744Z,102236.28
2022-08-31T15:45:01.117Z,102224.81
2022-08-31T15:47:52.939Z,102228.41
2022-08-31T15:50:47.334Z,102221.44
2022-08-31T15:53:14.039Z,102220.63
2022-08-31T15:55:41.240Z,102224.31
2022-08-31T15:58:09.540Z,102222.81
2022-08-31T16:00:37.400Z,102229.25
2022-08-31T16:03:06.089Z,102228.22
2022-08-31T16:05:35.859Z,102221.09
2022-08-31T16:08:17.634Z,102224.69
2022-08-31T16:10:48.009Z,102231.03
2022-08-31T16:13:16.238Z,102228.44
2022-08-31T16:15:50.552Z,102231.31
2022-08-31T16:18:28.595Z,102235.19
2022-08-31T16:20:55.988Z,102243.47
2022-08-31T16:23:27.119Z,102237.41
2022-08-31T16:25:54.072Z,102235.78
2022-08-31T16:28:23.108Z,102240.41
2022-08-31T16:30:52.435Z,102236.03
2022-08-31T16:33:20.202Z,102237.03
2022-08-31T16:35:47.861Z,102242.53
2022-08-31T16:38:14.759Z,102239.09
2022-08-31T16:40:48.856Z,102244.66
2022-08-31T16:43:15.680Z,102249.28
2022-08-31T16:45:42.529Z,102245.97
2022-08-31T16:48:29.487Z,102248.91
2022-08-31T16:51:01.947Z,102250.00
2022-08-31T16:53:28.891Z,102244.00
2022-08-31T16:55:58.948Z,102234.50
2022-08-31T17:01:28.688Z,102231.47
2022-08-31T17:04:04.818Z,102231.94
2022-08-31T17:06:35.126Z,102239.44
2022-08-31T17:09:08.462Z,102241.63
2022-08-31T17:11:40.142Z,102240.06
2022-08-31T17:14:11.137Z,102244.66
2022-08-31T17:16:40.801Z,102242.16
2022-08-31T17:19:13.426Z,102235.28
2022-08-31T17:21:51.602Z,102238.19
2022-08-31T17:24:25.923Z,102246.56
2022-08-31T17:27:02.340Z,102242.25
2022-08-31T17:29:43.776Z,102246.75
2022-08-31T17:32:12.470Z,102240.75
2022-08-31T17:34:41.815Z,102239.09
2022-08-31T17:37:13.137Z,102250.78
2022-08-31T17:39:44.419Z,102245.63
2022-08-31T17:42:15.245Z,102239.63
2022-08-31T17:44:44.946Z,102240.69
2022-08-31T17:47:11.793Z,102251.56
2022-08-31T17:49:43.230Z,102250.00
2022-08-31T17:52:12.745Z,102252.81
2022-08-31T17:54:42.153Z,102252.03
2022-08-31T17:57:12.024Z,102254.75
2022-08-31T17:59:41.343Z,102251.25
2022-08-31T18:02:11.388Z,102260.22
2022-08-31T18:04:39.248Z,102259.59
2022-08-31T18:07:07.284Z,102265.13
2022-08-31T18:09:37.520Z,102258.91
2022-08-31T18:12:06.252Z,102268.81
2022-08-31T18:14:34.645Z,102266.13
2022-08-31T18:17:03.878Z,102271.56
2022-08-31T18:19:33.115Z,102276.03
2022-08-31T18:22:00.946Z,102268.09
2022-08-31T18:24:27.774Z,102274.38
2022-08-31T18:26:56.822Z,102272.72
2022-08-31T18:29:24.861Z,102271.00
2022-08-31T18:31:57.153Z,102260.38
2022-08-31T18:34:25.279Z,102269.38
2022-08-31T18:36:55.191Z,102269.56
2022-08-31T18:39:50.018Z,102268.91
2022-08-31T18:42:32.391Z,102273.50
2022-08-31T18:45:19.533Z,102274.44
2022-08-31T18:48:23.252Z,102263.00
2022-08-31T18:50:45.662Z,102270.22
2022-08-31T18:53:15.447Z,102264.22
2022-08-31T18:55:53.508Z,102261.66
2022-08-31T18:58:20.228Z,102259.06
2022-08-31T19:00:56.124Z,102260.13
2022-08-31T19:03:23.038Z,102267.22
2022-08-31T19:05:49.671Z,102260.16
2022-08-31T19:08:16.507Z,102263.75
2022-08-31T19:10:43.183Z,102265.56
2022-08-31T19:13:09.890Z,102266.47
2022-08-31T19:15:40.574Z,102260.31
2022-08-31T19:18:33.405Z,102259.47
2022-08-31T19:21:10.654Z,102258.63
2022-08-31T19:23:37.274Z,102256.84
2022-08-31T19:26:03.922Z,102256.91
2022-08-31T19:28:30.554Z,102261.38
2022-08-31T19:30:57.225Z,102261.53
2022-08-31T19:33:26.957Z,102254.50
2022-08-31T19:36:04.780Z,102253.72
2022-08-31T19:38:31.622Z,102255.53
2022-08-31T19:40:59.431Z,102261.84
2022-08-31T19:43:44.921Z,102254.88
2022-08-31T19:46:25.227Z,102256.03
2022-08-31T19:48:52.693Z,102257.00
2022-08-31T19:51:25.870Z,102255.25
2022-08-31T19:53:54.983Z,102253.72
2022-08-31T19:59:18.185Z,102258.38
2022-08-31T20:01:47.855Z,102253.91
2022-08-31T20:04:17.055Z,102253.03
2022-08-31T20:06:45.707Z,102251.31
2022-08-31T20:09:13.250Z,102255.97
2022-08-31T20:14:23.655Z,102257.91
2022-08-31T20:16:51.364Z,102258.91
2022-08-31T20:19:24.939Z,102256.22
2022-08-31T20:21:54.041Z,102263.22
2022-08-31T20:24:26.799Z,102264.22
2022-08-31T20:26:55.592Z,102259.78
2022-08-31T20:29:23.873Z,102260.75
2022-08-31T20:31:52.432Z,102251.84
2022-08-31T20:34:22.123Z,102258.94
2022-08-31T20:36:52.331Z,102252.81
2022-08-31T20:39:20.153Z,102251.09
2022-08-31T20:41:50.821Z,102243.16
2022-08-31T20:44:25.594Z,102248.63
2022-08-31T20:47:14.280Z,102250.59
2022-08-31T20:50:02.827Z,102250.69
2022-08-31T20:52:35.082Z,102250.75
2022-08-31T20:55:04.935Z,102245.50
2022-08-31T20:57:33.335Z,102243.72
2022-08-31T21:00:05.657Z,102245.50
2022-08-31T21:02:37.383Z,102237.56
2022-08-31T21:05:36.400Z,102241.34
2022-08-31T21:07:57.625Z,102242.53
2022-08-31T21:10:36.160Z,102247.16
2022-08-31T21:13:08.874Z,102246.38
2022-08-31T21:15:40.182Z,102250.91
2022-08-31T21:18:06.867Z,102250.91
2022-08-31T21:20:35.410Z,102246.38
2022-08-31T21:23:02.092Z,102244.56
2022-08-31T21:25:32.125Z,102256.13
2022-08-31T21:28:00.069Z,102248.09
2022-08-31T21:30:26.859Z,102246.28
2022-08-31T21:32:53.502Z,102248.09
2022-08-31T21:35:20.273Z,102256.97
2022-08-31T21:37:46.983Z,102251.66
2022-08-31T21:40:13.758Z,102259.59
2022-08-31T21:42:40.574Z,102239.19
2022-08-31T21:45:10.831Z,102240.22
2022-08-31T21:47:37.506Z,102251.81
2022-08-31T21:50:07.142Z,102250.19
2022-08-31T21:52:33.954Z,102249.44
2022-08-31T21:55:05.569Z,102254.91
2022-08-31T21:57:32.335Z,102248.84
2022-08-31T21:59:59.649Z,102248.06
2022-08-31T22:02:26.389Z,102244.56
2022-08-31T22:04:55.499Z,102238.44
2022-08-31T22:07:22.165Z,102245.53
2022-08-31T22:09:49.063Z,102237.66
2022-08-31T22:12:18.064Z,102248.44
2022-08-31T22:14:44.823Z,102245.81
2022-08-31T22:17:11.506Z,102249.34
2022-08-31T22:19:39.366Z,102244.13
2022-08-31T22:22:11.752Z,102242.38
2022-08-31T22:24:39.768Z,102236.25
2022-08-31T22:27:09.234Z,102239.72
2022-08-31T22:29:37.872Z,102240.63
2022-08-31T22:32:12.109Z,102238.03
2022-08-31T22:34:40.259Z,102234.53
2022-08-31T22:37:13.993Z,102237.19
2022-08-31T22:39:42.546Z,102244.22
2022-08-31T22:42:09.807Z,102237.13
2022-08-31T22:44:39.365Z,102244.22
2022-08-31T22:47:06.285Z,102226.50
2022-08-31T22:49:32.985Z,102228.31
2022-08-31T22:51:59.710Z,102238.94
2022-08-31T22:54:26.852Z,102235.47
2022-08-31T22:56:53.846Z,102235.50
2022-08-31T22:59:27.427Z,102234.69
2022-08-31T23:02:03.598Z,102230.38
2022-08-31T23:04:34.344Z,102235.75
2022-08-31T23:07:03.745Z,102236.69
2022-08-31T23:09:34.327Z,102237.56
2022-08-31T23:12:04.683Z,102236.69
2022-08-31T23:14:32.780Z,102235.81
2022-08-31T23:17:01.732Z,102236.72
2022-08-31T23:19:36.961Z,102238.50
2022-08-31T23:22:09.398Z,102241.25
2022-08-31T23:24:40.803Z,102245.75
2022-08-31T23:27:10.378Z,102240.53
2022-08-31T23:29:40.340Z,102242.28
2022-08-31T23:32:13.442Z,102239.63
2022-08-31T23:34:41.826Z,102249.31
2022-08-31T23:37:09.912Z,102240.41
2022-08-31T23:39:39.623Z,102241.25
2022-08-31T23:42:07.155Z,102245.69
2022-08-31T23:44:36.194Z,102243.03
2022-08-31T23:47:03.935Z,102250.97
2022-08-31T23:49:30.655Z,102248.28
2022-08-31T23:51:57.335Z,102250.97
2022-08-31T23:54:29.665Z,102246.50
2022-08-31T23:56:59.133Z,102238.53
2022-08-31T23:59:25.869Z,102248.25
